Time;durP1;ratioP1;P1;durP2;ratioP2;P2;SDS_P1;SDS_P2;PMS_P1;PMS_P2;Temp;Humidity;BMP_temperature;BMP_pressure;BME280_temperature;BME280_humidity;BME280_pressure;Samples;Min_cycle;Max_cycle;Signal;HPM_P1;HPM_P2
2021/06/21 00:00:40;;;;;;;;;;;;;;;20.99;60.39;100747.59;2194422;39;113939;-54
2021/06/21 00:02:12;;;;;;;;;;;;;;;20.97;60.35;100743.44;2202279;39;114241;-53
2021/06/21 00:03:44;;;;;;;;;;;;;;;20.97;60.14;100749.06;2199651;39;115365;-53
2021/06/21 00:05:16;;;;;;;;;;;;;;;20.98;60.22;100748.75;2198543;39;113980;-53
2021/06/21 00:06:49;;;;;;;;;;;;;;;20.96;60.01;100742.63;2191679;39;114879;-53
2021/06/21 00:08:21;;;;;;;;;;;;;;;20.99;60.28;100752.38;2200004;39;114517;-53
2021/06/21 00:09:53;;;;;;;;;;;;;;;20.98;60.62;100750.75;2205226;39;114827;-54
2021/06/21 00:11:25;;;;;;;;;;;;;;;20.96;60.33;100753.84;2205574;39;115297;-53
2021/06/21 00:12:57;;;;;;;;;;;;;;;20.96;60.02;100758.63;2188413;39;115516;-54
2021/06/21 00:14:28;;;;;;;;;;;;;;;20.94;60.51;100755.31;2190895;39;115706;-53
2021/06/21 00:16:00;;;;;;;;;;;;;;;20.97;60.64;100766.75;2202404;39;116036;-53
2021/06/21 00:17:32;;;;;;;;;;;;;;;20.94;60.02;100767.38;2200175;39;114515;-54
2021/06/21 00:19:04;;;;;;;;;;;;;;;20.95;60.12;100759.78;2204303;39;115742;-53
2021/06/21 00:20:36;;;;;;;;;;;;;;;20.97;60.33;100755.53;2204591;39;115535;-53
2021/06/21 00:22:08;;;;;;;;;;;;;;;20.95;60.49;100754.16;2202885;39;114844;-54
2021/06/21 00:23:40;;;;;;;;;;;;;;;20.95;60.53;100755.00;2195582;39;115999;-53
2021/06/21 00:25:13;;;;;;;;;;;;;;;20.96;60.40;100747.41;2201504;39;115536;-53
2021/06/21 00:26:45;;;;;;;;;;;;;;;20.94;60.71;100752.53;2192981;39;115673;-54
2021/06/21 00:28:17;;;;;;;;;;;;;;;20.94;60.13;100755.31;2197226;39;115631;-53
2021/06/21 00:29:48;;;;;;;;;;;;;;;20.91;60.44;100750.31;2193538;39;114469;-55
2021/06/21 00:31:20;;;;;;;;;;;;;;;20.91;60.76;100744.69;2195732;39;115905;-52
2021/06/21 00:32:52;;;;;;;;;;;;;;;20.97;61.15;100749.91;2198127;39;115666;-53
2021/06/21 00:34:24;;;;;;;;;;;;;;;20.95;60.38;100754.16;2203751;39;114717;-53
2021/06/21 00:35:56;;;;;;;;;;;;;;;20.97;59.90;100751.88;2197570;39;113699;-53
2021/06/21 00:37:28;;;;;;;;;;;;;;;20.96;60.15;100761.44;2201275;39;113926;-53
2021/06/21 00:39:00;;;;;;;;;;;;;;;20.94;60.47;100758.13;2200187;39;113969;-52
2021/06/21 00:40:32;;;;;;;;;;;;;;;20.98;60.50;100754.38;2199758;39;113809;-53
2021/06/21 00:42:04;;;;;;;;;;;;;;;20.96;60.58;100753.00;2195926;39;113773;-53
2021/06/21 00:43:36;;;;;;;;;;;;;;;20.95;60.44;100754.16;2199191;39;113569;-53
2021/06/21 00:45:09;;;;;;;;;;;;;;;20.98;60.36;100753.53;2196467;39;113753;-53
2021/06/21 00:46:41;;;;;;;;;;;;;;;20.96;60.35;100759.47;2204510;39;113781;-53
2021/06/21 00:48:12;;;;;;;;;;;;;;;20.95;60.13;100762.59;2202167;39;113870;-53
2021/06/21 00:49:44;;;;;;;;;;;;;;;20.93;60.37;100757.31;2199362;39;114071;-53
2021/06/21 00:51:16;;;;;;;;;;;;;;;20.92;59.96;100768.84;2204867;39;113621;-53
2021/06/21 00:52:52;;;;;;;;;;;;;;;20.94;59.94;100760.94;2200958;39;113782;-53
2021/06/21 00:54:24;;;;;;;;;;;;;;;20.93;59.76;100760.09;2200864;39;113833;-53
2021/06/21 00:55:56;;;;;;;;;;;;;;;20.93;60.04;100746.06;2201860;39;113972;-53
2021/06/21 00:57:30;;;;;;;;;;;;;;;20.90;60.31;100743.88;2203311;39;114912;-54
2021/06/21 00:59:02;;;;;;;;;;;;;;;20.91;60.24;100744.69;2203134;39;115024;-53
2021/06/21 01:00:34;;;;;;;;;;;;;;;20.94;59.88;100750.50;2195295;39;114888;-54
2021/06/21 01:02:06;;;;;;;;;;;;;;;20.91;60.03;100751.16;2201035;39;114851;-53
2021/06/21 01:03:38;;;;;;;;;;;;;;;20.92;60.29;100752.00;2200797;39;114888;-53
2021/06/21 01:05:13;;;;;;;;;;;;;;;20.90;60.14;100754.28;2191823;39;114888;-52
2021/06/21 01:06:45;;;;;;;;;;;;;;;20.93;59.84;100757.31;2200662;39;115258;-53
2021/06/21 01:08:17;;;;;;;;;;;;;;;20.94;60.19;100749.72;2204091;39;114959;-52
2021/06/21 01:09:50;;;;;;;;;;;;;;;20.97;60.15;100757.50;2206889;39;114834;-53
2021/06/21 01:11:27;;;;;;;;;;;;;;;20.95;60.05;100756.97;2198306;39;114782;-53
2021/06/21 01:13:02;;;;;;;;;;;;;;;20.96;59.52;100756.66;2192218;39;115287;-53
2021/06/21 01:14:38;;;;;;;;;;;;;;;20.97;59.69;100752.72;2202823;39;115206;-53
2021/06/21 01:16:13;;;;;;;;;;;;;;;20.95;59.73;100751.34;2204659;39;115145;-53
2021/06/21 01:17:48;;;;;;;;;;;;;;;20.94;59.57;100752.53;2207712;39;115150;-53
2021/06/21 01:19:23;;;;;;;;;;;;;;;20.96;59.53;100747.41;2203753;39;115556;-53
2021/06/21 01:20:56;;;;;;;;;;;;;;;20.92;59.29;100743.56;2198988;39;115494;-53
2021/06/21 01:22:31;;;;;;;;;;;;;;;20.93;59.74;100746.06;2204256;39;114152;-53
2021/06/21 01:24:06;;;;;;;;;;;;;;;20.94;59.79;100735.66;2203832;39;115595;-53
2021/06/21 01:25:43;;;;;;;;;;;;;;;20.92;59.55;100744.41;2204703;39;114370;-53
2021/06/21 01:27:29;;;;;;;;;;;;;;;20.92;59.23;100752.00;2196262;39;114773;-52
2021/06/21 01:29:04;;;;;;;;;;;;;;;20.91;59.35;100750.31;2203883;39;115462;-52
2021/06/21 01:30:39;;;;;;;;;;;;;;;20.92;59.02;100741.59;2204319;39;115517;-53
2021/06/21 01:32:12;;;;;;;;;;;;;;;20.89;59.15;100725.38;2206673;39;115430;-52
2021/06/21 01:33:44;;;;;;;;;;;;;;;20.91;59.34;100745.53;2207980;39;115008;-52
2021/06/21 01:35:19;;;;;;;;;;;;;;;20.92;59.21;100729.53;2205461;39;115490;-52
2021/06/21 01:36:53;;;;;;;;;;;;;;;20.92;59.17;100730.34;2199761;39;115924;-52
2021/06/21 01:38:27;;;;;;;;;;;;;;;20.90;59.01;100738.25;2192233;39;116236;-53
2021/06/21 01:40:01;;;;;;;;;;;;;;;20.92;58.92;100729.53;2198243;39;115059;-53
2021/06/21 01:41:35;;;;;;;;;;;;;;;20.88;59.04;100728.50;2198446;39;114381;-53
2021/06/21 01:43:09;;;;;;;;;;;;;;;20.91;58.73;100727.84;2202039;39;113807;-53
2021/06/21 01:44:42;;;;;;;;;;;;;;;20.88;58.57;100728.50;2202408;39;113801;-53
2021/06/21 01:46:16;;;;;;;;;;;;;;;20.88;58.64;100731.31;2201161;39;113644;-53
2021/06/21 01:47:50;;;;;;;;;;;;;;;20.89;58.93;100725.38;2205474;39;113782;-53
2021/06/21 01:49:23;;;;;;;;;;;;;;;20.89;58.76;100724.53;2196907;39;113664;-53
2021/06/21 01:50:56;;;;;;;;;;;;;;;20.88;59.00;100734.13;2192055;39;113757;-53
2021/06/21 01:52:32;;;;;;;;;;;;;;;20.91;58.96;100727.84;2197015;39;113881;-52
2021/06/21 01:54:05;;;;;;;;;;;;;;;20.89;58.39;100732.97;2203498;39;114038;-53
2021/06/21 01:55:44;;;;;;;;;;;;;;;20.89;58.67;100724.53;2203345;39;113657;-53
2021/06/21 01:57:18;;;;;;;;;;;;;;;20.87;58.75;100727.66;2203484;39;113747;-53
2021/06/21 01:58:52;;;;;;;;;;;;;;;20.89;58.72;100721.75;2205597;39;113599;-53
2021/06/21 02:00:24;;;;;;;;;;;;;;;20.89;58.97;100714.16;2205206;39;113656;-53
2021/06/21 02:01:57;;;;;;;;;;;;;;;20.90;58.91;100706.53;2194828;39;113900;-53
2021/06/21 02:03:29;;;;;;;;;;;;;;;20.86;58.41;100709.97;2206144;39;113666;-53
2021/06/21 02:05:01;;;;;;;;;;;;;;;20.90;58.50;100714.94;2202779;39;114778;-53
2021/06/21 02:06:34;;;;;;;;;;;;;;;20.88;58.38;100723.72;2197320;39;114862;-53
2021/06/21 02:08:06;;;;;;;;;;;;;;;20.90;58.04;100729.81;2202764;39;114832;-53
2021/06/21 02:09:39;;;;;;;;;;;;;;;20.91;58.17;100727.84;2200587;39;113937;-53
2021/06/21 02:11:11;;;;;;;;;;;;;;;20.90;58.36;100734.59;2201159;39;115292;-53
2021/06/21 02:12:44;;;;;;;;;;;;;;;20.89;58.39;100739.44;2203555;39;115008;-53
2021/06/21 02:14:18;;;;;;;;;;;;;;;20.89;58.01;100731.00;2197430;39;114895;-53
2021/06/21 02:15:53;;;;;;;;;;;;;;;20.86;57.98;100734.41;2202701;39;117280;-53
2021/06/21 02:17:26;;;;;;;;;;;;;;;20.89;57.88;100735.78;2203629;39;114849;-53
2021/06/21 02:18:59;;;;;;;;;;;;;;;20.87;57.92;100730.47;2195324;39;115053;-53
2021/06/21 02:20:32;;;;;;;;;;;;;;;20.88;58.00;100736.91;2201462;39;114868;-53
2021/06/21 02:22:03;;;;;;;;;;;;;;;20.86;57.89;100735.25;2197949;39;115196;-53
2021/06/21 02:23:36;;;;;;;;;;;;;;;20.88;57.96;100740.56;2203116;39;114744;-53
2021/06/21 02:25:09;;;;;;;;;;;;;;;20.85;58.18;100744.81;2205705;39;114870;-53
2021/06/21 02:26:41;;;;;;;;;;;;;;;20.88;57.94;100739.72;2203309;39;116234;-53
2021/06/21 02:28:13;;;;;;;;;;;;;;;20.85;58.23;100744.81;2207418;39;114594;-53
2021/06/21 02:29:47;;;;;;;;;;;;;;;20.84;58.14;100743.19;2205327;39;115496;-52
2021/06/21 02:31:24;;;;;;;;;;;;;;;20.88;58.15;100753.78;2204507;39;114616;-53
2021/06/21 02:32:56;;;;;;;;;;;;;;;20.84;58.05;100757.22;2200956;39;115521;-53
2021/06/21 02:34:29;;;;;;;;;;;;;;;20.86;57.91;100749.28;2207843;39;114591;-53
2021/06/21 02:36:03;;;;;;;;;;;;;;;20.85;57.72;100746.78;2203970;39;115602;-52
2021/06/21 02:37:36;;;;;;;;;;;;;;;20.82;58.29;100753.88;2201974;39;114615;-52
2021/06/21 02:39:08;;;;;;;;;;;;;;;20.84;58.36;100756.38;2204255;39;115515;-53
2021/06/21 02:40:40;;;;;;;;;;;;;;;20.83;57.84;100758.34;2199130;39;115655;-53
2021/06/21 02:42:12;;;;;;;;;;;;;;;20.85;57.98;100746.78;2193020;39;116100;-53
2021/06/21 02:43:44;;;;;;;;;;;;;;;20.84;57.50;100760.03;2195016;39;115668;-53
2021/06/21 02:45:16;;;;;;;;;;;;;;;20.82;57.52;100742.66;2200792;39;115555;-52
2021/06/21 02:46:49;;;;;;;;;;;;;;;20.83;57.59;100754.72;2204971;39;116396;-53
2021/06/21 02:48:21;;;;;;;;;;;;;;;20.83;57.95;100755.56;2203287;39;113776;-53
2021/06/21 02:49:53;;;;;;;;;;;;;;;20.84;57.70;100751.59;2203715;39;113812;-53
2021/06/21 02:51:31;;;;;;;;;;;;;;;20.82;57.30;100748.25;2204989;39;113848;-53
2021/06/21 02:53:07;;;;;;;;;;;;;;;20.84;57.41;100740.38;2202199;39;114597;-53
2021/06/21 02:54:43;;;;;;;;;;;;;;;20.83;57.73;100741.50;2203077;39;113888;-53
2021/06/21 02:56:18;;;;;;;;;;;;;;;20.81;57.62;100755.03;2195965;39;113873;-53
2021/06/21 02:57:53;;;;;;;;;;;;;;;20.82;57.91;100748.25;2200713;39;114180;-52
2021/06/21 02:59:25;;;;;;;;;;;;;;;20.83;57.64;100754.72;2204744;39;113858;-53
2021/06/21 03:00:59;;;;;;;;;;;;;;;20.81;57.73;100751.38;2195945;39;113959;-53
2021/06/21 03:02:32;;;;;;;;;;;;;;;20.82;57.72;100759.50;2195957;39;113643;-53
2021/06/21 03:04:05;;;;;;;;;;;;;;;20.81;57.37;100754.19;2202886;39;113622;-53
2021/06/21 03:05:38;;;;;;;;;;;;;;;20.80;57.17;100749.75;2195916;39;114270;-53
2021/06/21 03:07:12;;;;;;;;;;;;;;;20.81;57.58;100760.63;2202268;39;114003;-52
2021/06/21 03:08:45;;;;;;;;;;;;;;;20.80;57.07;100761.78;2200823;39;113650;-53
2021/06/21 03:10:17;;;;;;;;;;;;;;;20.78;57.25;100764.09;2204528;39;114768;-53
2021/06/21 03:11:51;;;;;;;;;;;;;;;20.77;57.57;100755.97;2200846;39;114823;-53
2021/06/21 03:13:24;;;;;;;;;;;;;;;20.79;57.28;100759.31;2199170;39;115180;-53
2021/06/21 03:14:57;;;;;;;;;;;;;;;20.78;57.38;100750.03;2204401;39;113783;-53
2021/06/21 03:16:30;;;;;;;;;;;;;;;20.80;57.35;100758.16;2196029;39;115363;-53
2021/06/21 03:18:03;;;;;;;;;;;;;;;20.79;57.09;100753.69;2194619;39;115340;-53
2021/06/21 03:19:36;;;;;;;;;;;;;;;20.77;57.59;100750.34;2194437;39;113926;-53
2021/06/21 03:21:07;;;;;;;;;;;;;;;20.77;57.31;100751.19;2201924;39;114815;-53
2021/06/21 03:22:40;;;;;;;;;;;;;;;20.81;57.39;100757.00;2204923;39;114793;-53
2021/06/21 03:24:14;;;;;;;;;;;;;;;20.81;57.09;100762.59;2203781;39;115351;-52
2021/06/21 03:25:49;;;;;;;;;;;;;;;20.79;57.30;100753.69;2197317;39;114236;-53
2021/06/21 03:27:24;;;;;;;;;;;;;;;20.79;57.47;100764.91;2196972;39;114900;-53
2021/06/21 03:28:56;;;;;;;;;;;;;;;20.78;57.22;100763.25;2203055;39;114856;-56
2021/06/21 03:30:28;;;;;;;;;;;;;;;20.77;57.23;100762.41;2201427;39;114004;-53
2021/06/21 03:32:10;;;;;;;;;;;;;;;20.78;57.01;100766.06;2195649;39;115563;-53
2021/06/21 03:33:42;;;;;;;;;;;;;;;20.77;57.18;100758.78;2203066;39;115550;-53
2021/06/21 03:35:41;;;;;;;;;;;;;;;20.77;56.79;100755.97;2201103;39;115299;-53
2021/06/21 03:37:13;;;;;;;;;;;;;;;20.77;57.16;100758.78;2200321;39;114903;-53
2021/06/21 03:38:46;;;;;;;;;;;;;;;20.78;56.73;100761.28;2201676;39;115850;-53
2021/06/21 03:40:18;;;;;;;;;;;;;;;20.76;57.01;100757.94;2197498;39;115628;-53
2021/06/21 03:41:50;;;;;;;;;;;;;;;20.78;57.15;100763.25;2200698;39;115570;-53
2021/06/21 03:43:23;;;;;;;;;;;;;;;20.78;57.15;100754.81;2201332;39;114561;-53
2021/06/21 03:44:55;;;;;;;;;;;;;;;20.77;56.94;100764.38;2201561;39;115925;-53
2021/06/21 03:46:28;;;;;;;;;;;;;;;20.78;57.24;100761.28;2195714;39;115306;-53
2021/06/21 03:48:00;;;;;;;;;;;;;;;20.76;57.13;100760.75;2198609;39;116265;-53
2021/06/21 03:49:32;;;;;;;;;;;;;;;20.75;57.39;100764.72;2199888;39;115539;-53
2021/06/21 03:51:05;;;;;;;;;;;;;;;20.77;57.26;100762.41;2200607;39;115685;-53
2021/06/21 03:52:38;;;;;;;;;;;;;;;20.77;56.78;100756.81;2200393;39;115973;-53
2021/06/21 03:54:10;;;;;;;;;;;;;;;20.77;56.73;100764.38;2203345;39;115557;-53
2021/06/21 03:55:42;;;;;;;;;;;;;;;20.78;56.76;100757.63;2197771;39;114147;-53
2021/06/21 03:57:14;;;;;;;;;;;;;;;20.76;56.89;100760.75;2200708;39;113864;-53
2021/06/21 03:58:48;;;;;;;;;;;;;;;20.77;57.15;100761.59;2200185;39;113713;-53
2021/06/21 04:00:23;;;;;;;;;;;;;;;20.76;57.21;100766.38;2202273;39;114471;-52
2021/06/21 04:01:56;;;;;;;;;;;;;;;20.74;57.19;100777.09;2204630;39;113821;-53
2021/06/21 04:03:28;;;;;;;;;;;;;;;20.76;56.93;100777.59;2205005;39;113582;-52
2021/06/21 04:05:00;;;;;;;;;;;;;;;20.76;57.04;100773.94;2198332;39;113569;-53
2021/06/21 04:06:32;;;;;;;;;;;;;;;20.75;56.56;100775.97;2209332;39;113921;-53
2021/06/21 04:08:05;;;;;;;;;;;;;;;20.75;56.49;100778.75;2205176;39;113768;-53
2021/06/21 04:09:38;;;;;;;;;;;;;;;20.76;56.63;100779.56;2196928;39;113792;-52
2021/06/21 04:11:10;;;;;;;;;;;;;;;20.75;56.21;100786.34;2202722;39;113636;-53
2021/06/21 04:12:42;;;;;;;;;;;;;;;20.75;56.62;100784.38;2205156;39;114093;-53
2021/06/21 04:14:15;;;;;;;;;;;;;;;20.74;56.78;100791.13;2204900;39;114119;-53
2021/06/21 04:15:47;;;;;;;;;;;;;;;20.74;56.89;100793.09;2207305;39;113844;-53
2021/06/21 04:17:19;;;;;;;;;;;;;;;20.74;56.57;100788.31;2202485;39;114426;-53
2021/06/21 04:18:51;;;;;;;;;;;;;;;20.74;56.38;100790.28;2198447;39;115117;-53
2021/06/21 04:20:23;;;;;;;;;;;;;;;20.72;56.52;100804.63;2203330;39;114739;-53
2021/06/21 04:21:55;;;;;;;;;;;;;;;20.75;56.48;100787.19;2199547;39;114822;-53
2021/06/21 04:23:27;;;;;;;;;;;;;;;20.74;56.83;100796.75;2202211;39;115251;-53
2021/06/21 04:24:59;;;;;;;;;;;;;;;20.74;56.36;100790.28;2202504;39;114942;-53
2021/06/21 04:26:31;;;;;;;;;;;;;;;20.72;57.04;100796.22;2202090;39;115546;-53
2021/06/21 04:28:04;;;;;;;;;;;;;;;20.73;56.38;100792.28;2196740;39;114844;-53
2021/06/21 04:29:36;;;;;;;;;;;;;;;20.76;56.59;100794.44;2196138;39;114839;-53
2021/06/21 04:31:08;;;;;;;;;;;;;;;20.72;56.08;100793.41;2201097;39;114805;-53
2021/06/21 04:32:40;;;;;;;;;;;;;;;20.69;56.49;100796.84;2205519;39;115413;-53
2021/06/21 04:34:13;;;;;;;;;;;;;;;20.72;56.43;100806.63;2197773;39;114573;-53
2021/06/21 04:35:45;;;;;;;;;;;;;;;20.72;56.02;100801.00;2194225;39;115013;-53
2021/06/21 04:37:17;;;;;;;;;;;;;;;20.69;56.52;100802.47;2202296;39;115431;-53
2021/06/21 04:38:48;;;;;;;;;;;;;;;20.72;56.43;100803.81;2206725;39;115487;-53
2021/06/21 04:40:22;;;;;;;;;;;;;;;20.68;56.33;100798.00;2203656;39;115484;-52
2021/06/21 04:41:54;;;;;;;;;;;;;;;20.71;56.26;100794.56;2197392;39;116205;-54
2021/06/21 04:43:26;;;;;;;;;;;;;;;20.71;55.84;100796.56;2202053;39;116054;-53
2021/06/21 04:44:58;;;;;;;;;;;;;;;20.72;56.20;100799.03;2202689;39;115679;-53
2021/06/21 04:46:33;;;;;;;;;;;;;;;20.69;56.33;100794.03;2204016;39;116049;-53
2021/06/21 04:48:06;;;;;;;;;;;;;;;20.68;56.10;100792.38;2197973;39;114676;-53
2021/06/21 04:49:38;;;;;;;;;;;;;;;20.69;55.85;100794.03;2193904;39;115793;-53
2021/06/21 04:51:10;;;;;;;;;;;;;;;20.72;55.50;100792.56;2196135;39;115047;-53
2021/06/21 04:52:43;;;;;;;;;;;;;;;20.68;55.74;100798.00;2200997;39;115714;-53
2021/06/21 04:54:15;;;;;;;;;;;;;;;20.69;55.63;100793.22;2203833;39;115509;-53
2021/06/21 04:55:49;;;;;;;;;;;;;;;20.68;55.84;100798.00;2205082;39;115526;-53
2021/06/21 04:57:21;;;;;;;;;;;;;;;20.69;55.54;100798.81;2202177;39;115471;-52
2021/06/21 04:58:55;;;;;;;;;;;;;;;20.67;55.39;100793.50;2207207;39;115489;-53
2021/06/21 05:00:27;;;;;;;;;;;;;;;20.68;55.57;100798.00;2195309;39;113929;-53
2021/06/21 05:01:59;;;;;;;;;;;;;;;20.65;55.58;100798.63;2200937;39;113771;-53
2021/06/21 05:03:31;;;;;;;;;;;;;;;20.65;55.92;100804.25;2205498;39;113592;-53
2021/06/21 05:05:03;;;;;;;;;;;;;;;20.66;55.50;100797.50;2203109;39;113634;-53
2021/06/21 05:06:35;;;;;;;;;;;;;;;20.68;55.32;100806.41;2205568;39;113982;-53
2021/06/21 05:08:08;;;;;;;;;;;;;;;20.66;55.59;100797.50;2199143;39;113592;-53
2021/06/21 05:09:40;;;;;;;;;;;;;;;20.64;55.54;100802.56;2202380;39;113850;-53
2021/06/21 05:11:12;;;;;;;;;;;;;;;20.66;55.64;100796.66;2205061;39;114288;-53
2021/06/21 05:12:44;;;;;;;;;;;;;;;20.67;55.64;100801.13;2198338;39;114091;-53
2021/06/21 05:14:17;;;;;;;;;;;;;;;20.65;55.53;100798.63;2203009;39;113607;-53
2021/06/21 05:15:49;;;;;;;;;;;;;;;20.62;55.75;100793.66;2197504;39;113702;-53
2021/06/21 05:17:21;;;;;;;;;;;;;;;20.66;55.89;100797.50;2205700;39;114006;-52
2021/06/21 05:18:53;;;;;;;;;;;;;;;20.68;56.09;100791.53;2209659;39;114135;-53
2021/06/21 05:20:25;;;;;;;;;;;;;;;20.73;56.20;100800.69;2205106;39;113811;-53
2021/06/21 05:21:57;;;;;;;;;;;;;;;20.73;56.70;100802.66;2207893;39;113726;-53
2021/06/21 05:23:29;;;;;;;;;;;;;;;20.76;56.32;100807.66;2205816;39;114944;-52
2021/06/21 05:25:02;;;;;;;;;;;;;;;20.78;56.71;100808.19;2206848;39;114854;-53
2021/06/21 05:26:34;;;;;;;;;;;;;;;20.80;56.41;100800.28;2204324;39;114929;-53
2021/06/21 05:28:06;;;;;;;;;;;;;;;20.84;57.03;100806.94;2204990;39;114898;-53
2021/06/21 05:29:38;;;;;;;;;;;;;;;20.86;57.07;100799.84;2203454;39;113869;-53
2021/06/21 05:31:10;;;;;;;;;;;;;;;20.89;57.33;100804.03;2204429;39;114978;-53
2021/06/21 05:32:42;;;;;;;;;;;;;;;20.91;57.13;100798.91;2197979;39;114632;-53
2021/06/21 05:34:14;;;;;;;;;;;;;;;20.94;57.41;100806.69;2203036;39;114694;-53
2021/06/21 05:35:46;;;;;;;;;;;;;;;20.96;57.08;100815.63;2205171;39;114912;-53
2021/06/21 05:37:18;;;;;;;;;;;;;;;20.99;57.41;100808.56;2197768;39;114923;-53
2021/06/21 05:38:50;;;;;;;;;;;;;;;21.02;57.29;100814.41;2191989;39;115106;-53
2021/06/21 05:40:22;;;;;;;;;;;;;;;21.04;57.57;100816.88;2201063;39;113792;-53
2021/06/21 05:41:59;;;;;;;;;;;;;;;21.08;57.50;100812.28;2204385;39;115313;-53
2021/06/21 05:43:31;;;;;;;;;;;;;;;21.11;57.28;100811.66;2207416;39;115434;-53
2021/06/21 05:45:04;;;;;;;;;;;;;;;21.14;57.46;100817.50;2201758;39;115497;-53
2021/06/21 05:46:36;;;;;;;;;;;;;;;21.15;57.40;100813.56;2204802;39;115490;-53
2021/06/21 05:48:08;;;;;;;;;;;;;;;21.18;57.26;100814.91;2204687;39;115535;-53
2021/06/21 05:49:40;;;;;;;;;;;;;;;21.23;57.36;100824.03;2204162;39;115597;-53
2021/06/21 05:51:12;;;;;;;;;;;;;;;21.24;57.42;100827.69;2197060;39;115519;-53
2021/06/21 05:52:44;;;;;;;;;;;;;;;21.28;57.51;100825.91;2202453;39;115647;-52
2021/06/21 05:54:16;;;;;;;;;;;;;;;21.32;57.83;100820.47;2201889;39;115484;-52
2021/06/21 05:55:48;;;;;;;;;;;;;;;21.36;57.20;100819.53;2191405;39;115672;-53
2021/06/21 05:57:20;;;;;;;;;;;;;;;21.41;57.05;100829.81;2197772;39;115704;-52
2021/06/21 05:58:52;;;;;;;;;;;;;;;21.43;56.74;100839.63;2203146;39;115597;-53
2021/06/21 06:00:25;;;;;;;;;;;;;;;21.47;56.87;100837.00;2203770;39;114682;-53
2021/06/21 06:01:57;;;;;;;;;;;;;;;21.50;57.06;100831.56;2196716;39;116008;-53
2021/06/21 06:03:29;;;;;;;;;;;;;;;21.52;56.99;100840.53;2201653;39;115659;-53
2021/06/21 06:05:01;;;;;;;;;;;;;;;21.56;56.48;100837.91;2201546;39;115698;-53
2021/06/21 06:06:33;;;;;;;;;;;;;;;21.60;56.09;100831.31;2205155;39;113772;-53
2021/06/21 06:08:05;;;;;;;;;;;;;;;21.63;56.32;100836.28;2204855;39;113800;-53
2021/06/21 06:09:37;;;;;;;;;;;;;;;21.66;56.20;100838.50;2205522;39;113703;-53
2021/06/21 06:11:09;;;;;;;;;;;;;;;21.69;55.50;100829.41;2204775;39;113932;-53
2021/06/21 06:12:41;;;;;;;;;;;;;;;21.72;55.88;100840.00;2207807;39;113797;-53
2021/06/21 06:14:14;;;;;;;;;;;;;;;21.76;55.52;100840.19;2210627;39;113654;-53
2021/06/21 06:15:46;;;;;;;;;;;;;;;21.79;55.18;100833.09;2208678;39;113711;-53
2021/06/21 06:17:18;;;;;;;;;;;;;;;21.81;54.97;100836.41;2205977;39;114201;-53
2021/06/21 06:18:50;;;;;;;;;;;;;;;21.84;54.69;100835.78;2208451;39;114541;-53
2021/06/21 06:20:22;;;;;;;;;;;;;;;21.87;54.38;100826.72;2204462;39;113905;-53
2021/06/21 06:21:54;;;;;;;;;;;;;;;21.89;54.43;100833.69;2198942;39;114211;-53
2021/06/21 06:23:26;;;;;;;;;;;;;;;21.92;54.26;100835.03;2202727;39;114087;-52
2021/06/21 06:24:58;;;;;;;;;;;;;;;21.94;54.02;100833.56;2197187;39;113889;-53
2021/06/21 06:26:30;;;;;;;;;;;;;;;21.97;53.77;100840.56;2196130;39;113943;-52
2021/06/21 06:28:02;;;;;;;;;;;;;;;21.99;53.88;100838.22;2202028;39;115139;-53
2021/06/21 06:29:34;;;;;;;;;;;;;;;22.01;53.61;100842.41;2204631;39;115296;-53
2021/06/21 06:31:06;;;;;;;;;;;;;;;22.03;53.14;100842.09;2203187;39;114557;-53
2021/06/21 06:32:39;;;;;;;;;;;;;;;22.05;53.13;100843.41;2198309;39;114555;-53
2021/06/21 06:34:11;;;;;;;;;;;;;;;22.07;53.33;100843.09;2203929;39;115508;-52
2021/06/21 06:35:43;;;;;;;;;;;;;;;22.07;52.95;100843.94;2206765;39;114875;-52
2021/06/21 06:37:16;;;;;;;;;;;;;;;22.09;53.17;100837.97;2197008;39;114854;-52
2021/06/21 06:38:48;;;;;;;;;;;;;;;22.11;53.14;100841.31;2202427;39;114730;-53
2021/06/21 06:40:20;;;;;;;;;;;;;;;22.13;53.22;100847.44;2204017;39;114806;-53
2021/06/21 06:41:52;;;;;;;;;;;;;;;22.13;52.83;100850.25;2197287;39;114949;-53
2021/06/21 06:43:25;;;;;;;;;;;;;;;22.15;52.78;100843.16;2199234;39;114948;-54
2021/06/21 06:44:57;;;;;;;;;;;;;;;22.16;52.89;100839.19;2201691;39;114185;-53
2021/06/21 06:46:29;;;;;;;;;;;;;;;22.17;53.01;100854.06;2200687;39;114094;-53
2021/06/21 06:48:02;;;;;;;;;;;;;;;22.18;53.16;100847.28;2202775;39;115124;-53
2021/06/21 06:49:34;;;;;;;;;;;;;;;22.20;53.20;100846.97;2203926;39;114541;-52
2021/06/21 06:51:06;;;;;;;;;;;;;;;22.19;53.77;100848.97;2197828;39;115666;-52
2021/06/21 06:52:39;;;;;;;;;;;;;;;22.24;53.50;100853.63;2201757;39;114579;-53
2021/06/21 06:54:22;;;;;;;;;;;;;;;22.21;52.82;100852.31;2197216;39;116250;-53
2021/06/21 06:57:30;;;;;;;;;;;;;;;22.22;52.24;100851.13;2201534;39;116563;-53
2021/06/21 06:59:03;;;;;;;;;;;;;;;22.22;51.98;100851.13;2204439;39;116156;-53
2021/06/21 07:00:36;;;;;;;;;;;;;;;22.22;51.56;100850.28;2203751;39;114642;-53
2021/06/21 07:02:10;;;;;;;;;;;;;;;22.21;51.71;100852.31;2202076;39;115809;-53
2021/06/21 07:03:42;;;;;;;;;;;;;;;22.22;51.53;100855.91;2197606;39;115787;-54
2021/06/21 07:05:15;;;;;;;;;;;;;;;22.22;51.77;100853.09;2202012;39;115487;-52
2021/06/21 07:06:48;;;;;;;;;;;;;;;22.21;52.25;100857.94;2197678;39;115688;-53
2021/06/21 07:08:20;;;;;;;;;;;;;;;22.23;52.33;100861.25;2202906;39;115531;-54
2021/06/21 07:09:52;;;;;;;;;;;;;;;22.24;52.42;100854.47;2205393;39;114563;-53
2021/06/21 07:11:29;;;;;;;;;;;;;;;22.24;52.27;100862.91;2207237;39;115557;-56
2021/06/21 07:13:01;;;;;;;;;;;;;;;22.25;52.52;100864.56;2206741;39;113840;-53
2021/06/21 07:14:33;;;;;;;;;;;;;;;22.23;52.31;100849.97;2203926;39;114189;-53
2021/06/21 07:16:05;;;;;;;;;;;;;;;22.23;52.61;100849.97;2205064;39;113889;-53
2021/06/21 07:17:37;;;;;;;;;;;;;;;22.25;52.11;100856.13;2204669;39;113678;-53
2021/06/21 07:19:09;;;;;;;;;;;;;;;22.24;51.97;100859.25;2204796;39;113790;-53
2021/06/21 07:20:42;;;;;;;;;;;;;;;22.22;52.25;100864.38;2203274;39;114157;-53
2021/06/21 07:22:14;;;;;;;;;;;;;;;22.13;51.03;100861.50;2204170;39;113922;-53
2021/06/21 07:23:47;;;;;;;;;;;;;;;21.98;50.15;100874.00;2204471;39;113666;-53
2021/06/21 07:25:19;;;;;;;;;;;;;;;21.92;49.44;100865.97;2200920;39;114244;-53
2021/06/21 07:26:52;;;;;;;;;;;;;;;21.82;48.89;100874.66;2202010;39;113863;-53
2021/06/21 07:28:27;;;;;;;;;;;;;;;21.74;48.93;100874.28;2204246;39;113985;-53
2021/06/21 07:30:00;;;;;;;;;;;;;;;21.71;49.14;100872.06;2202054;39;113822;-53
2021/06/21 07:31:33;;;;;;;;;;;;;;;21.68;49.26;100871.88;2197946;39;113881;-54
2021/06/21 07:33:05;;;;;;;;;;;;;;;21.61;49.49;100875.16;2201587;39;113922;-53
2021/06/21 07:34:38;;;;;;;;;;;;;;;21.57;49.46;100881.75;2203098;39;114787;-53
2021/06/21 07:36:10;;;;;;;;;;;;;;;21.51;49.37;100881.00;2203460;39;114340;-53
2021/06/21 07:37:42;;;;;;;;;;;;;;;21.47;49.26;100880.00;2198559;39;113961;-53
2021/06/21 07:39:15;;;;;;;;;;;;;;;21.48;49.26;100881.66;2196532;39;114861;-52
2021/06/21 07:40:47;;;;;;;;;;;;;;;21.44;49.66;100882.59;2197044;39;114863;-53
2021/06/21 07:42:19;;;;;;;;;;;;;;;21.38;49.67;100881.88;2202599;39;114905;-52
2021/06/21 07:43:51;;;;;;;;;;;;;;;21.42;49.81;100885.72;2204192;39;115062;-53
2021/06/21 07:45:23;;;;;;;;;;;;;;;21.37;49.88;100894.28;2203086;39;114027;-53
2021/06/21 07:46:56;;;;;;;;;;;;;;;21.35;49.80;100887.31;2204251;39;115472;-53
2021/06/21 07:48:28;;;;;;;;;;;;;;;21.27;50.29;100894.50;2203750;39;114763;-53
2021/06/21 07:50:00;;;;;;;;;;;;;;;21.21;49.90;100893.75;2205364;39;114846;-53
2021/06/21 07:51:32;;;;;;;;;;;;;;;21.19;50.13;100892.44;2204053;39;115166;-53
2021/06/21 07:53:06;;;;;;;;;;;;;;;21.20;50.47;100894.09;2197268;39;115338;-53